sensor_id;sensor_type;location;lat;lon;timestamp;P1;durP1;ratioP1;P2;durP2;ratioP2
56718;SDS011;42597;40.636;0.278;2023-03-01T00:01:52;8.45;;;3.88;;
56718;SDS011;42597;40.636;0.278;2023-03-01T00:04:18;4.70;;;2.75;;
56718;SDS011;42597;40.636;0.278;2023-03-01T00:06:44;4.55;;;2.88;;
56718;SDS011;42597;40.636;0.278;2023-03-01T00:09:11;5.05;;;3.03;;
56718;SDS011;42597;40.636;0.278;2023-03-01T00:11:37;6.03;;;3.20;;
56718;SDS011;42597;40.636;0.278;2023-03-01T00:14:03;5.18;;;2.45;;
56718;SDS011;42597;40.636;0.278;2023-03-01T00:16:33;4.18;;;2.53;;
56718;SDS011;42597;40.636;0.278;2023-03-01T00:19:04;3.30;;;2.05;;
56718;SDS011;42597;40.636;0.278;2023-03-01T00:21:31;5.65;;;3.10;;
56718;SDS011;42597;40.636;0.278;2023-03-01T00:23:57;5.28;;;2.63;;
56718;SDS011;42597;40.636;0.278;2023-03-01T00:26:23;4.95;;;2.70;;
56718;SDS011;42597;40.636;0.278;2023-03-01T00:28:50;4.90;;;2.53;;
56718;SDS011;42597;40.636;0.278;2023-03-01T00:31:17;6.82;;;2.67;;
56718;SDS011;42597;40.636;0.278;2023-03-01T00:33:53;4.70;;;2.58;;
56718;SDS011;42597;40.636;0.278;2023-03-01T00:36:23;4.80;;;2.40;;
56718;SDS011;42597;40.636;0.278;2023-03-01T00:39:09;4.00;;;2.45;;
56718;SDS011;42597;40.636;0.278;2023-03-01T00:41:37;3.30;;;2.17;;
56718;SDS011;42597;40.636;0.278;2023-03-01T00:44:02;4.30;;;2.20;;
56718;SDS011;42597;40.636;0.278;2023-03-01T00:46:28;8.13;;;3.63;;
56718;SDS011;42597;40.636;0.278;2023-03-01T00:48:55;3.30;;;1.90;;
56718;SDS011;42597;40.636;0.278;2023-03-01T00:51:22;4.00;;;2.00;;
56718;SDS011;42597;40.636;0.278;2023-03-01T00:53:51;7.28;;;2.85;;
56718;SDS011;42597;40.636;0.278;2023-03-01T00:56:18;3.42;;;2.10;;
56718;SDS011;42597;40.636;0.278;2023-03-01T00:58:43;4.10;;;2.20;;
56718;SDS011;42597;40.636;0.278;2023-03-01T01:03:58;2.60;;;1.50;;
56718;SDS011;42597;40.636;0.278;2023-03-01T01:06:27;3.85;;;2.10;;
56718;SDS011;42597;40.636;0.278;2023-03-01T01:08:54;5.55;;;2.13;;
56718;SDS011;42597;40.636;0.278;2023-03-01T01:11:21;4.60;;;2.83;;
56718;SDS011;42597;40.636;0.278;2023-03-01T01:13:48;4.32;;;2.55;;
56718;SDS011;42597;40.636;0.278;2023-03-01T01:16:15;6.40;;;2.22;;
56718;SDS011;42597;40.636;0.278;2023-03-01T01:18:42;6.55;;;2.83;;
56718;SDS011;42597;40.636;0.278;2023-03-01T01:21:09;3.65;;;1.80;;
56718;SDS011;42597;40.636;0.278;2023-03-01T01:23:37;3.95;;;2.55;;
56718;SDS011;42597;40.636;0.278;2023-03-01T01:26:05;4.35;;;2.42;;
56718;SDS011;42597;40.636;0.278;2023-03-01T01:28:31;3.33;;;1.90;;
56718;SDS011;42597;40.636;0.278;2023-03-01T01:30:57;3.85;;;1.88;;
56718;SDS011;42597;40.636;0.278;2023-03-01T01:33:23;11.52;;;2.03;;
56718;SDS011;42597;40.636;0.278;2023-03-01T01:35:48;3.25;;;2.25;;
56718;SDS011;42597;40.636;0.278;2023-03-01T01:38:14;4.10;;;2.35;;
56718;SDS011;42597;40.636;0.278;2023-03-01T01:40:45;3.55;;;2.17;;
56718;SDS011;42597;40.636;0.278;2023-03-01T01:43:16;5.20;;;2.80;;
56718;SDS011;42597;40.636;0.278;2023-03-01T01:45:44;5.55;;;1.90;;
56718;SDS011;42597;40.636;0.278;2023-03-01T01:48:10;5.15;;;2.53;;
56718;SDS011;42597;40.636;0.278;2023-03-01T01:50:41;4.22;;;2.33;;
56718;SDS011;42597;40.636;0.278;2023-03-01T01:53:09;6.05;;;3.28;;
56718;SDS011;42597;40.636;0.278;2023-03-01T01:55:42;4.25;;;2.47;;
56718;SDS011;42597;40.636;0.278;2023-03-01T02:00:38;5.37;;;3.20;;
56718;SDS011;42597;40.636;0.278;2023-03-01T02:03:07;6.93;;;3.13;;
56718;SDS011;42597;40.636;0.278;2023-03-01T02:08:22;4.72;;;2.92;;
56718;SDS011;42597;40.636;0.278;2023-03-01T02:10:51;6.38;;;3.28;;
56718;SDS011;42597;40.636;0.278;2023-03-01T02:13:18;5.88;;;3.25;;
56718;SDS011;42597;40.636;0.278;2023-03-01T02:15:43;4.30;;;2.90;;
56718;SDS011;42597;40.636;0.278;2023-03-01T02:18:10;10.95;;;4.15;;
56718;SDS011;42597;40.636;0.278;2023-03-01T02:23:32;7.05;;;3.60;;
56718;SDS011;42597;40.636;0.278;2023-03-01T02:28:53;5.53;;;3.25;;
56718;SDS011;42597;40.636;0.278;2023-03-01T02:31:19;5.80;;;3.17;;
56718;SDS011;42597;40.636;0.278;2023-03-01T02:34:04;7.00;;;3.72;;
56718;SDS011;42597;40.636;0.278;2023-03-01T02:36:35;4.07;;;2.78;;
56718;SDS011;42597;40.636;0.278;2023-03-01T02:39:14;8.13;;;3.90;;
56718;SDS011;42597;40.636;0.278;2023-03-01T02:41:43;5.45;;;3.47;;
56718;SDS011;42597;40.636;0.278;2023-03-01T02:44:18;6.43;;;3.95;;
56718;SDS011;42597;40.636;0.278;2023-03-01T02:46:46;6.72;;;3.83;;
56718;SDS011;42597;40.636;0.278;2023-03-01T02:49:29;5.82;;;3.67;;
56718;SDS011;42597;40.636;0.278;2023-03-01T02:54:48;4.90;;;2.30;;
56718;SDS011;42597;40.636;0.278;2023-03-01T02:57:27;6.05;;;3.30;;
56718;SDS011;42597;40.636;0.278;2023-03-01T02:59:55;6.60;;;4.22;;
56718;SDS011;42597;40.636;0.278;2023-03-01T03:02:26;5.68;;;3.72;;
56718;SDS011;42597;40.636;0.278;2023-03-01T03:05:04;5.32;;;2.80;;
56718;SDS011;42597;40.636;0.278;2023-03-01T03:07:33;5.50;;;3.08;;
56718;SDS011;42597;40.636;0.278;2023-03-01T03:10:05;5.72;;;3.83;;
56718;SDS011;42597;40.636;0.278;2023-03-01T03:12:32;6.70;;;4.82;;
56718;SDS011;42597;40.636;0.278;2023-03-01T03:14:58;6.32;;;3.45;;
56718;SDS011;42597;40.636;0.278;2023-03-01T03:17:24;6.13;;;3.80;;
56718;SDS011;42597;40.636;0.278;2023-03-01T03:19:49;5.03;;;3.00;;
56718;SDS011;42597;40.636;0.278;2023-03-01T03:22:15;5.38;;;3.10;;
56718;SDS011;42597;40.636;0.278;2023-03-01T03:24:40;6.55;;;3.38;;
56718;SDS011;42597;40.636;0.278;2023-03-01T03:27:06;5.55;;;3.20;;
56718;SDS011;42597;40.636;0.278;2023-03-01T03:29:32;5.20;;;3.58;;
56718;SDS011;42597;40.636;0.278;2023-03-01T03:31:58;6.78;;;3.90;;
56718;SDS011;42597;40.636;0.278;2023-03-01T03:34:24;6.78;;;4.10;;
56718;SDS011;42597;40.636;0.278;2023-03-01T03:36:53;5.35;;;3.28;;
56718;SDS011;42597;40.636;0.278;2023-03-01T03:39:22;6.57;;;4.13;;
56718;SDS011;42597;40.636;0.278;2023-03-01T03:41:48;6.88;;;4.07;;
56718;SDS011;42597;40.636;0.278;2023-03-01T03:44:14;7.97;;;4.03;;
56718;SDS011;42597;40.636;0.278;2023-03-01T03:46:39;6.88;;;4.07;;
56718;SDS011;42597;40.636;0.278;2023-03-01T03:49:05;7.00;;;4.60;;
56718;SDS011;42597;40.636;0.278;2023-03-01T03:51:30;7.70;;;5.65;;
56718;SDS011;42597;40.636;0.278;2023-03-01T03:53:56;6.65;;;4.68;;
56718;SDS011;42597;40.636;0.278;2023-03-01T03:56:21;5.72;;;3.63;;
56718;SDS011;42597;40.636;0.278;2023-03-01T03:58:51;5.65;;;4.10;;
56718;SDS011;42597;40.636;0.278;2023-03-01T04:01:17;5.45;;;3.13;;
56718;SDS011;42597;40.636;0.278;2023-03-01T04:03:42;5.57;;;4.20;;
56718;SDS011;42597;40.636;0.278;2023-03-01T04:06:11;5.18;;;3.33;;
56718;SDS011;42597;40.636;0.278;2023-03-01T04:08:38;6.13;;;3.50;;
56718;SDS011;42597;40.636;0.278;2023-03-01T04:11:04;5.53;;;3.22;;
56718;SDS011;42597;40.636;0.278;2023-03-01T04:13:49;7.32;;;4.63;;
56718;SDS011;42597;40.636;0.278;2023-03-01T04:16:16;7.38;;;5.45;;
56718;SDS011;42597;40.636;0.278;2023-03-01T04:18:42;7.20;;;4.93;;
56718;SDS011;42597;40.636;0.278;2023-03-01T04:21:08;6.10;;;3.42;;
56718;SDS011;42597;40.636;0.278;2023-03-01T04:23:35;4.57;;;2.60;;
56718;SDS011;42597;40.636;0.278;2023-03-01T04:26:01;7.82;;;4.03;;
56718;SDS011;42597;40.636;0.278;2023-03-01T04:28:28;6.25;;;3.95;;
56718;SDS011;42597;40.636;0.278;2023-03-01T04:31:01;6.85;;;3.72;;
56718;SDS011;42597;40.636;0.278;2023-03-01T04:33:38;6.10;;;4.30;;
56718;SDS011;42597;40.636;0.278;2023-03-01T04:36:05;6.82;;;4.05;;
56718;SDS011;42597;40.636;0.278;2023-03-01T04:38:33;7.55;;;4.45;;
56718;SDS011;42597;40.636;0.278;2023-03-01T04:41:01;7.50;;;5.45;;
56718;SDS011;42597;40.636;0.278;2023-03-01T04:43:28;6.63;;;4.25;;
56718;SDS011;42597;40.636;0.278;2023-03-01T04:45:54;5.10;;;3.65;;
56718;SDS011;42597;40.636;0.278;2023-03-01T04:48:19;5.45;;;3.90;;
56718;SDS011;42597;40.636;0.278;2023-03-01T04:50:44;5.80;;;3.67;;
56718;SDS011;42597;40.636;0.278;2023-03-01T04:53:10;6.30;;;3.35;;
56718;SDS011;42597;40.636;0.278;2023-03-01T04:55:35;7.22;;;3.83;;
56718;SDS011;42597;40.636;0.278;2023-03-01T04:58:01;6.18;;;4.47;;
56718;SDS011;42597;40.636;0.278;2023-03-01T05:00:26;5.78;;;3.97;;
56718;SDS011;42597;40.636;0.278;2023-03-01T05:02:53;6.05;;;3.83;;
56718;SDS011;42597;40.636;0.278;2023-03-01T05:07:55;6.50;;;4.53;;
56718;SDS011;42597;40.636;0.278;2023-03-01T05:10:22;6.65;;;4.78;;
56718;SDS011;42597;40.636;0.278;2023-03-01T05:12:48;7.68;;;3.83;;
56718;SDS011;42597;40.636;0.278;2023-03-01T05:15:14;4.55;;;2.83;;
56718;SDS011;42597;40.636;0.278;2023-03-01T05:17:39;8.45;;;5.50;;
56718;SDS011;42597;40.636;0.278;2023-03-01T05:20:05;6.15;;;3.42;;
56718;SDS011;42597;40.636;0.278;2023-03-01T05:22:34;4.70;;;3.20;;
56718;SDS011;42597;40.636;0.278;2023-03-01T05:25:00;6.03;;;4.20;;
56718;SDS011;42597;40.636;0.278;2023-03-01T05:27:26;6.35;;;3.95;;
56718;SDS011;42597;40.636;0.278;2023-03-01T05:29:52;7.35;;;5.18;;
56718;SDS011;42597;40.636;0.278;2023-03-01T05:32:17;7.60;;;5.10;;
56718;SDS011;42597;40.636;0.278;2023-03-01T05:34:43;7.53;;;4.60;;
56718;SDS011;42597;40.636;0.278;2023-03-01T05:37:11;5.15;;;3.13;;
56718;SDS011;42597;40.636;0.278;2023-03-01T05:39:37;5.97;;;4.07;;
56718;SDS011;42597;40.636;0.278;2023-03-01T05:42:03;8.50;;;5.78;;
56718;SDS011;42597;40.636;0.278;2023-03-01T05:44:28;5.72;;;3.33;;
56718;SDS011;42597;40.636;0.278;2023-03-01T05:46:54;6.82;;;4.53;;
56718;SDS011;42597;40.636;0.278;2023-03-01T05:49:20;7.72;;;5.90;;
56718;SDS011;42597;40.636;0.278;2023-03-01T05:51:50;7.80;;;4.60;;
56718;SDS011;42597;40.636;0.278;2023-03-01T05:54:17;9.73;;;4.60;;
56718;SDS011;42597;40.636;0.278;2023-03-01T05:56:43;9.00;;;4.30;;
56718;SDS011;42597;40.636;0.278;2023-03-01T05:59:09;5.72;;;4.07;;
56718;SDS011;42597;40.636;0.278;2023-03-01T06:01:35;5.63;;;3.47;;
56718;SDS011;42597;40.636;0.278;2023-03-01T06:04:02;6.72;;;4.72;;
56718;SDS011;42597;40.636;0.278;2023-03-01T06:06:28;6.43;;;3.65;;
56718;SDS011;42597;40.636;0.278;2023-03-01T06:08:54;8.98;;;6.07;;
56718;SDS011;42597;40.636;0.278;2023-03-01T06:11:21;6.50;;;4.03;;
56718;SDS011;42597;40.636;0.278;2023-03-01T06:13:47;7.75;;;4.97;;
56718;SDS011;42597;40.636;0.278;2023-03-01T06:16:13;7.10;;;4.43;;
56718;SDS011;42597;40.636;0.278;2023-03-01T06:18:39;7.13;;;5.53;;
56718;SDS011;42597;40.636;0.278;2023-03-01T06:21:05;7.40;;;5.15;;
56718;SDS011;42597;40.636;0.278;2023-03-01T06:23:32;9.20;;;5.63;;
56718;SDS011;42597;40.636;0.278;2023-03-01T06:25:58;7.03;;;5.95;;
56718;SDS011;42597;40.636;0.278;2023-03-01T06:28:24;7.10;;;4.93;;
56718;SDS011;42597;40.636;0.278;2023-03-01T06:30:50;5.68;;;3.88;;
56718;SDS011;42597;40.636;0.278;2023-03-01T06:33:16;7.65;;;4.70;;
56718;SDS011;42597;40.636;0.278;2023-03-01T06:35:45;8.27;;;4.88;;
56718;SDS011;42597;40.636;0.278;2023-03-01T06:38:11;7.03;;;4.78;;
56718;SDS011;42597;40.636;0.278;2023-03-01T06:40:40;5.93;;;4.63;;
56718;SDS011;42597;40.636;0.278;2023-03-01T06:43:05;6.05;;;4.20;;
56718;SDS011;42597;40.636;0.278;2023-03-01T06:45:32;4.97;;;3.55;;
56718;SDS011;42597;40.636;0.278;2023-03-01T06:48:02;8.80;;;5.53;;
56718;SDS011;42597;40.636;0.278;2023-03-01T06:50:29;7.47;;;5.25;;
56718;SDS011;42597;40.636;0.278;2023-03-01T06:52:55;6.72;;;4.57;;
56718;SDS011;42597;40.636;0.278;2023-03-01T06:55:21;5.82;;;4.40;;
56718;SDS011;42597;40.636;0.278;2023-03-01T06:57:47;8.13;;;5.70;;
56718;SDS011;42597;40.636;0.278;2023-03-01T07:00:13;7.28;;;6.00;;
56718;SDS011;42597;40.636;0.278;2023-03-01T07:02:39;5.03;;;3.30;;
56718;SDS011;42597;40.636;0.278;2023-03-01T07:05:04;8.10;;;4.68;;
56718;SDS011;42597;40.636;0.278;2023-03-01T07:07:30;8.07;;;5.55;;
56718;SDS011;42597;40.636;0.278;2023-03-01T07:09:56;9.27;;;5.53;;
56718;SDS011;42597;40.636;0.278;2023-03-01T07:12:21;8.93;;;5.72;;
56718;SDS011;42597;40.636;0.278;2023-03-01T07:14:47;6.50;;;4.25;;
56718;SDS011;42597;40.636;0.278;2023-03-01T07:17:12;7.85;;;4.50;;
56718;SDS011;42597;40.636;0.278;2023-03-01T07:19:38;6.50;;;4.53;;
56718;SDS011;42597;40.636;0.278;2023-03-01T07:22:04;7.53;;;5.15;;
56718;SDS011;42597;40.636;0.278;2023-03-01T07:24:32;8.70;;;5.65;;
56718;SDS011;42597;40.636;0.278;2023-03-01T07:26:58;8.07;;;5.75;;
56718;SDS011;42597;40.636;0.278;2023-03-01T07:29:24;10.90;;;6.72;;
56718;SDS011;42597;40.636;0.278;2023-03-01T07:31:49;8.88;;;6.32;;
56718;SDS011;42597;40.636;0.278;2023-03-01T07:34:15;7.88;;;5.43;;
56718;SDS011;42597;40.636;0.278;2023-03-01T07:36:40;7.57;;;6.13;;
56718;SDS011;42597;40.636;0.278;2023-03-01T07:39:08;7.53;;;4.45;;
56718;SDS011;42597;40.636;0.278;2023-03-01T07:41:34;6.65;;;5.13;;
56718;SDS011;42597;40.636;0.278;2023-03-01T07:44:00;9.23;;;3.13;;
56718;SDS011;42597;40.636;0.278;2023-03-01T07:46:26;8.57;;;5.97;;
56718;SDS011;42597;40.636;0.278;2023-03-01T07:48:51;9.30;;;5.72;;
56718;SDS011;42597;40.636;0.278;2023-03-01T07:51:17;8.85;;;5.28;;
56718;SDS011;42597;40.636;0.278;2023-03-01T07:53:44;12.38;;;5.28;;
56718;SDS011;42597;40.636;0.278;2023-03-01T07:56:11;8.30;;;5.57;;
56718;SDS011;42597;40.636;0.278;2023-03-01T07:58:39;7.60;;;5.65;;
56718;SDS011;42597;40.636;0.278;2023-03-01T08:01:07;11.63;;;7.03;;
56718;SDS011;42597;40.636;0.278;2023-03-01T08:03:34;19.40;;;11.90;;
56718;SDS011;42597;40.636;0.278;2023-03-01T08:06:01;13.40;;;9.60;;
56718;SDS011;42597;40.636;0.278;2023-03-01T08:08:28;17.58;;;11.93;;
56718;SDS011;42597;40.636;0.278;2023-03-01T08:10:57;22.80;;;16.42;;
56718;SDS011;42597;40.636;0.278;2023-03-01T08:13:26;21.85;;;16.05;;
56718;SDS011;42597;40.636;0.278;2023-03-01T08:15:53;10.00;;;7.35;;
56718;SDS011;42597;40.636;0.278;2023-03-01T08:18:19;10.80;;;7.38;;
56718;SDS011;42597;40.636;0.278;2023-03-01T08:20:46;9.85;;;7.47;;
56718;SDS011;42597;40.636;0.278;2023-03-01T08:23:12;15.40;;;11.18;;
56718;SDS011;42597;40.636;0.278;2023-03-01T08:25:38;17.08;;;11.40;;
56718;SDS011;42597;40.636;0.278;2023-03-01T08:28:03;9.20;;;6.20;;
56718;SDS011;42597;40.636;0.278;2023-03-01T08:30:29;14.65;;;10.30;;
56718;SDS011;42597;40.636;0.278;2023-03-01T08:32:55;13.60;;;10.70;;
56718;SDS011;42597;40.636;0.278;2023-03-01T08:35:21;11.98;;;8.63;;
56718;SDS011;42597;40.636;0.278;2023-03-01T08:37:46;16.75;;;12.18;;
56718;SDS011;42597;40.636;0.278;2023-03-01T08:40:12;24.33;;;14.73;;
56718;SDS011;42597;40.636;0.278;2023-03-01T08:42:39;9.32;;;5.32;;
56718;SDS011;42597;40.636;0.278;2023-03-01T08:45:06;19.85;;;13.75;;
56718;SDS011;42597;40.636;0.278;2023-03-01T08:47:32;12.88;;;8.88;;
56718;SDS011;42597;40.636;0.278;2023-03-01T08:49:59;15.65;;;7.40;;
56718;SDS011;42597;40.636;0.278;2023-03-01T08:52:24;9.32;;;6.22;;
56718;SDS011;42597;40.636;0.278;2023-03-01T08:54:51;14.43;;;5.85;;
56718;SDS011;42597;40.636;0.278;2023-03-01T08:57:17;8.18;;;5.47;;
56718;SDS011;42597;40.636;0.278;2023-03-01T08:59:43;9.82;;;7.43;;
56718;SDS011;42597;40.636;0.278;2023-03-01T09:02:13;11.30;;;6.32;;
56718;SDS011;42597;40.636;0.278;2023-03-01T09:04:40;11.55;;;8.48;;
56718;SDS011;42597;40.636;0.278;2023-03-01T09:07:06;13.95;;;8.50;;
56718;SDS011;42597;40.636;0.278;2023-03-01T09:09:32;9.50;;;6.22;;
56718;SDS011;42597;40.636;0.278;2023-03-01T09:11:57;8.18;;;5.43;;
56718;SDS011;42597;40.636;0.278;2023-03-01T09:14:23;10.18;;;6.50;;
56718;SDS011;42597;40.636;0.278;2023-03-01T09:16:49;11.80;;;8.52;;
56718;SDS011;42597;40.636;0.278;2023-03-01T09:19:15;9.18;;;7.35;;
56718;SDS011;42597;40.636;0.278;2023-03-01T09:21:40;12.63;;;6.75;;
56718;SDS011;42597;40.636;0.278;2023-03-01T09:24:08;9.85;;;7.05;;
56718;SDS011;42597;40.636;0.278;2023-03-01T09:26:38;7.97;;;6.00;;
56718;SDS011;42597;40.636;0.278;2023-03-01T09:29:04;9.07;;;5.35;;
56718;SDS011;42597;40.636;0.278;2023-03-01T09:31:29;9.15;;;5.95;;
56718;SDS011;42597;40.636;0.278;2023-03-01T09:33:55;7.88;;;5.22;;
56718;SDS011;42597;40.636;0.278;2023-03-01T09:36:22;10.07;;;6.82;;
56718;SDS011;42597;40.636;0.278;2023-03-01T09:38:50;7.72;;;6.53;;
56718;SDS011;42597;40.636;0.278;2023-03-01T09:43:51;5.63;;;3.55;;
56718;SDS011;42597;40.636;0.278;2023-03-01T09:46:22;8.18;;;6.25;;
56718;SDS011;42597;40.636;0.278;2023-03-01T09:48:51;9.20;;;7.00;;
56718;SDS011;42597;40.636;0.278;2023-03-01T09:51:32;8.57;;;6.43;;
56718;SDS011;42597;40.636;0.278;2023-03-01T09:54:03;6.80;;;5.55;;
56718;SDS011;42597;40.636;0.278;2023-03-01T09:59:02;13.27;;;9.13;;
56718;SDS011;42597;40.636;0.278;2023-03-01T10:04:45;11.65;;;10.45;;
56718;SDS011;42597;40.636;0.278;2023-03-01T10:07:36;9.32;;;7.00;;
56718;SDS011;42597;40.636;0.278;2023-03-01T10:10:21;8.82;;;6.57;;
56718;SDS011;42597;40.636;0.278;2023-03-01T10:12:56;13.15;;;8.50;;
56718;SDS011;42597;40.636;0.278;2023-03-01T10:15:34;6.38;;;4.25;;
56718;SDS011;42597;40.636;0.278;2023-03-01T10:18:06;8.73;;;7.57;;
56718;SDS011;42597;40.636;0.278;2023-03-01T10:20:48;9.55;;;5.88;;
56718;SDS011;42597;40.636;0.278;2023-03-01T10:23:19;12.30;;;7.95;;
56718;SDS011;42597;40.636;0.278;2023-03-01T10:31:11;7.18;;;5.75;;
56718;SDS011;42597;40.636;0.278;2023-03-01T10:33:39;10.02;;;7.55;;
56718;SDS011;42597;40.636;0.278;2023-03-01T10:36:06;12.75;;;8.07;;
56718;SDS011;42597;40.636;0.278;2023-03-01T10:38:46;7.13;;;5.57;;
56718;SDS011;42597;40.636;0.278;2023-03-01T10:41:17;8.13;;;5.28;;
56718;SDS011;42597;40.636;0.278;2023-03-01T10:49:27;10.75;;;6.97;;
56718;SDS011;42597;40.636;0.278;2023-03-01T10:51:50;11.32;;;6.55;;
56718;SDS011;42597;40.636;0.278;2023-03-01T10:54:22;14.55;;;9.10;;
56718;SDS011;42597;40.636;0.278;2023-03-01T10:57:04;14.32;;;10.95;;
56718;SDS011;42597;40.636;0.278;2023-03-01T10:59:37;15.30;;;11.10;;
56718;SDS011;42597;40.636;0.278;2023-03-01T11:05:01;9.13;;;6.00;;
56718;SDS011;42597;40.636;0.278;2023-03-01T11:07:30;5.28;;;2.80;;
56718;SDS011;42597;40.636;0.278;2023-03-01T11:09:55;7.38;;;4.35;;
56718;SDS011;42597;40.636;0.278;2023-03-01T11:12:21;15.00;;;12.32;;
56718;SDS011;42597;40.636;0.278;2023-03-01T11:14:48;15.90;;;14.20;;
56718;SDS011;42597;40.636;0.278;2023-03-01T11:20:33;10.20;;;7.28;;
56718;SDS011;42597;40.636;0.278;2023-03-01T11:23:21;9.05;;;5.00;;
56718;SDS011;42597;40.636;0.278;2023-03-01T11:25:33;7.65;;;5.88;;
56718;SDS011;42597;40.636;0.278;2023-03-01T11:28:03;5.20;;;3.20;;
56718;SDS011;42597;40.636;0.278;2023-03-01T11:30:41;9.23;;;6.88;;
56718;SDS011;42597;40.636;0.278;2023-03-01T11:36:01;9.82;;;5.95;;
56718;SDS011;42597;40.636;0.278;2023-03-01T11:38:33;7.10;;;4.35;;
56718;SDS011;42597;40.636;0.278;2023-03-01T11:41:05;6.28;;;4.05;;
56718;SDS011;42597;40.636;0.278;2023-03-01T11:56:50;17.60;;;10.20;;
56718;SDS011;42597;40.636;0.278;2023-03-01T11:59:52;11.80;;;10.48;;
56718;SDS011;42597;40.636;0.278;2023-03-01T12:02:32;8.35;;;5.75;;
56718;SDS011;42597;40.636;0.278;2023-03-01T12:08:07;12.05;;;6.20;;
56718;SDS011;42597;40.636;0.278;2023-03-01T12:10:54;5.93;;;3.17;;
56718;SDS011;42597;40.636;0.278;2023-03-01T12:16:53;8.45;;;5.47;;
56718;SDS011;42597;40.636;0.278;2023-03-01T12:27:14;11.20;;;6.30;;
56718;SDS011;42597;40.636;0.278;2023-03-01T12:30:09;15.57;;;10.10;;
56718;SDS011;42597;40.636;0.278;2023-03-01T12:38:22;8.83;;;5.77;;
56718;SDS011;42597;40.636;0.278;2023-03-01T12:46:47;5.32;;;3.03;;
56718;SDS011;42597;40.636;0.278;2023-03-01T12:49:28;7.93;;;6.43;;
56718;SDS011;42597;40.636;0.278;2023-03-01T12:52:02;8.40;;;6.28;;
56718;SDS011;42597;40.636;0.278;2023-03-01T12:54:38;7.88;;;4.88;;
56718;SDS011;42597;40.636;0.278;2023-03-01T13:05:47;11.52;;;7.28;;
56718;SDS011;42597;40.636;0.278;2023-03-01T13:08:29;12.57;;;5.88;;
56718;SDS011;42597;40.636;0.278;2023-03-01T13:11:02;5.22;;;3.40;;
56718;SDS011;42597;40.636;0.278;2023-03-01T13:13:29;7.13;;;3.63;;
56718;SDS011;42597;40.636;0.278;2023-03-01T13:15:55;9.43;;;6.28;;
56718;SDS011;42597;40.636;0.278;2023-03-01T13:21:06;5.90;;;4.03;;
56718;SDS011;42597;40.636;0.278;2023-03-01T13:23:36;6.93;;;4.10;;
56718;SDS011;42597;40.636;0.278;2023-03-01T13:34:03;7.80;;;4.65;;
56718;SDS011;42597;40.636;0.278;2023-03-01T13:41:54;8.88;;;4.78;;
56718;SDS011;42597;40.636;0.278;2023-03-01T13:49:49;7.85;;;4.15;;
56718;SDS011;42597;40.636;0.278;2023-03-01T13:52:36;6.88;;;3.65;;
56718;SDS011;42597;40.636;0.278;2023-03-01T13:55:15;5.70;;;3.15;;
56718;SDS011;42597;40.636;0.278;2023-03-01T13:58:05;4.78;;;2.90;;
56718;SDS011;42597;40.636;0.278;2023-03-01T14:00:39;9.00;;;5.55;;
56718;SDS011;42597;40.636;0.278;2023-03-01T14:03:16;5.35;;;2.83;;
56718;SDS011;42597;40.636;0.278;2023-03-01T14:05:57;3.60;;;2.42;;
56718;SDS011;42597;40.636;0.278;2023-03-01T14:08:29;5.53;;;2.78;;
56718;SDS011;42597;40.636;0.278;2023-03-01T14:13:31;4.75;;;3.40;;
56718;SDS011;42597;40.636;0.278;2023-03-01T14:21:25;6.75;;;4.28;;
56718;SDS011;42597;40.636;0.278;2023-03-01T14:23:51;6.25;;;3.20;;
56718;SDS011;42597;40.636;0.278;2023-03-01T14:26:21;6.30;;;3.35;;
56718;SDS011;42597;40.636;0.278;2023-03-01T14:28:47;9.57;;;5.88;;
56718;SDS011;42597;40.636;0.278;2023-03-01T14:33:55;5.85;;;3.20;;
56718;SDS011;42597;40.636;0.278;2023-03-01T14:36:25;3.65;;;2.28;;
56718;SDS011;42597;40.636;0.278;2023-03-01T14:38:53;7.63;;;4.53;;
56718;SDS011;42597;40.636;0.278;2023-03-01T14:41:23;7.78;;;4.97;;
56718;SDS011;42597;40.636;0.278;2023-03-01T14:43:53;7.40;;;5.50;;
56718;SDS011;42597;40.636;0.278;2023-03-01T14:48:50;6.47;;;2.53;;
56718;SDS011;42597;40.636;0.278;2023-03-01T14:51:20;6.18;;;4.00;;
56718;SDS011;42597;40.636;0.278;2023-03-01T14:53:47;5.50;;;3.65;;
56718;SDS011;42597;40.636;0.278;2023-03-01T14:56:13;4.80;;;3.13;;
56718;SDS011;42597;40.636;0.278;2023-03-01T14:58:42;5.00;;;3.55;;
56718;SDS011;42597;40.636;0.278;2023-03-01T15:01:10;6.35;;;4.07;;
56718;SDS011;42597;40.636;0.278;2023-03-01T15:03:47;5.95;;;4.20;;
56718;SDS011;42597;40.636;0.278;2023-03-01T15:06:14;4.63;;;2.90;;
56718;SDS011;42597;40.636;0.278;2023-03-01T15:08:45;6.00;;;3.85;;
56718;SDS011;42597;40.636;0.278;2023-03-01T15:13:38;4.22;;;2.40;;
56718;SDS011;42597;40.636;0.278;2023-03-01T15:18:35;4.80;;;3.13;;
56718;SDS011;42597;40.636;0.278;2023-03-01T15:21:06;10.88;;;7.82;;
56718;SDS011;42597;40.636;0.278;2023-03-01T15:23:40;8.90;;;6.40;;
56718;SDS011;42597;40.636;0.278;2023-03-01T15:26:06;8.38;;;6.95;;
56718;SDS011;42597;40.636;0.278;2023-03-01T15:28:49;7.40;;;4.10;;
56718;SDS011;42597;40.636;0.278;2023-03-01T15:31:18;8.65;;;6.40;;
56718;SDS011;42597;40.636;0.278;2023-03-01T15:33:47;11.38;;;5.15;;
56718;SDS011;42597;40.636;0.278;2023-03-01T15:36:29;8.05;;;6.53;;
56718;SDS011;42597;40.636;0.278;2023-03-01T15:38:56;9.32;;;7.68;;
56718;SDS011;42597;40.636;0.278;2023-03-01T15:41:31;12.40;;;6.60;;
56718;SDS011;42597;40.636;0.278;2023-03-01T15:43:58;10.02;;;6.22;;
56718;SDS011;42597;40.636;0.278;2023-03-01T15:46:29;10.13;;;7.43;;
56718;SDS011;42597;40.636;0.278;2023-03-01T15:49:04;13.52;;;7.25;;
56718;SDS011;42597;40.636;0.278;2023-03-01T15:51:50;11.80;;;7.82;;
56718;SDS011;42597;40.636;0.278;2023-03-01T15:54:19;6.18;;;3.75;;
56718;SDS011;42597;40.636;0.278;2023-03-01T15:56:47;5.68;;;3.50;;
56718;SDS011;42597;40.636;0.278;2023-03-01T15:59:13;7.60;;;5.75;;
56718;SDS011;42597;40.636;0.278;2023-03-01T16:01:40;6.22;;;4.00;;
56718;SDS011;42597;40.636;0.278;2023-03-01T16:04:06;11.25;;;5.47;;
56718;SDS011;42597;40.636;0.278;2023-03-01T16:06:32;8.07;;;6.20;;
56718;SDS011;42597;40.636;0.278;2023-03-01T16:08:57;9.40;;;5.40;;
56718;SDS011;42597;40.636;0.278;2023-03-01T16:11:23;9.98;;;6.53;;
56718;SDS011;42597;40.636;0.278;2023-03-01T16:13:48;10.48;;;6.97;;
56718;SDS011;42597;40.636;0.278;2023-03-01T16:16:15;17.65;;;11.02;;
56718;SDS011;42597;40.636;0.278;2023-03-01T16:18:45;9.93;;;7.63;;
56718;SDS011;42597;40.636;0.278;2023-03-01T16:21:29;14.15;;;10.27;;
56718;SDS011;42597;40.636;0.278;2023-03-01T16:23:55;17.27;;;12.35;;
56718;SDS011;42597;40.636;0.278;2023-03-01T16:26:21;17.58;;;9.73;;
56718;SDS011;42597;40.636;0.278;2023-03-01T16:28:47;13.93;;;11.55;;
56718;SDS011;42597;40.636;0.278;2023-03-01T16:31:16;11.55;;;7.20;;
56718;SDS011;42597;40.636;0.278;2023-03-01T16:33:43;10.75;;;5.40;;
56718;SDS011;42597;40.636;0.278;2023-03-01T16:36:14;5.03;;;3.25;;
56718;SDS011;42597;40.636;0.278;2023-03-01T16:38:41;6.78;;;3.70;;
56718;SDS011;42597;40.636;0.278;2023-03-01T16:41:10;6.88;;;4.85;;
56718;SDS011;42597;40.636;0.278;2023-03-01T16:43:37;6.82;;;4.03;;
56718;SDS011;42597;40.636;0.278;2023-03-01T16:46:25;6.10;;;4.38;;
56718;SDS011;42597;40.636;0.278;2023-03-01T16:48:53;7.30;;;3.65;;
56718;SDS011;42597;40.636;0.278;2023-03-01T16:51:20;5.28;;;3.08;;
56718;SDS011;42597;40.636;0.278;2023-03-01T16:53:46;5.72;;;3.70;;
56718;SDS011;42597;40.636;0.278;2023-03-01T16:56:12;6.07;;;3.35;;
56718;SDS011;42597;40.636;0.278;2023-03-01T16:58:39;4.68;;;3.05;;
56718;SDS011;42597;40.636;0.278;2023-03-01T17:03:31;10.40;;;3.80;;
56718;SDS011;42597;40.636;0.278;2023-03-01T17:05:56;6.60;;;3.60;;
56718;SDS011;42597;40.636;0.278;2023-03-01T17:08:22;6.68;;;3.80;;
56718;SDS011;42597;40.636;0.278;2023-03-01T17:10:47;6.90;;;3.40;;
56718;SDS011;42597;40.636;0.278;2023-03-01T17:13:13;5.18;;;3.50;;